Energy IVy — A8UO8 — position and weather

sailwx.info

Track history (hours):
 
Tides and Currents Weather Stations Pressure Air Temp Water Temp Dewpoint Dewpoint Depression Visibility Wind Speed Wind Dir Waves Ship Positions

Energy IVy

Last reported at 2014-Jul-23 00:10 UTC. Time now 2014-Jul-25 01:38 UTC.
Position N 40°46' E 029°32'.

Length 180 m; draft 9.6 m.

Type: Cargo ship. MMSI: 636091925.

Date/timePositionNaut miles runAvg speedWind from/ knotsBaromVisibWave heightAir tempDewpointWater temp
2014-Jul-23 00:10N 40°46' E 029°32'  
2014-Jul-19 23:10N 36°55' E 023°48'1111.2
2014-Jul-19 22:09N 36°46' E 023°39'42711.6
2014-Jul-18 09:19N 36°36' E 014°46'912.2
2014-Jul-18 08:34N 36°37' E 014°34'1212.0
2014-Jul-18 07:34N 36°39' E 014°20'16711.8
2014-Jul-17 17:24N 37°25' E 010°59'33211.9
2014-Jul-16 13:34N 37°05' E 004°03'1211.3
2014-Jul-16 12:29N 37°05' E 003°48'1410.9
2014-Jul-16 11:12N 37°03' E 003°31'711.3
2014-Jul-16 10:33N 37°03' E 003°22'1211.8
2014-Jul-16 09:33N 37°02' E 003°07'1211.8
2014-Jul-16 08:33N 36°59' E 002°52'1212.0
2014-Jul-16 07:33N 36°56' E 002°38'1312.7
2014-Jul-16 06:33N 36°54' E 002°22'1212.5
2014-Jul-16 05:34N 36°51' E 002°07'1312.3
2014-Jul-16 04:31N 36°48' E 001°51'1112.0
2014-Jul-16 03:34N 36°45' E 001°37'5611.1
2014-Jul-15 22:29N 36°33' E 000°29'4511.4
2014-Jul-15 18:32N 36°23' W 000°25'4711.4
2014-Jul-15 14:26N 36°12' W 001°22'1110.5
2014-Jul-15 13:22N 36°10' W 001°35'910.7
2014-Jul-15 12:33N 36°08' W 001°46'1010.6
2014-Jul-15 11:34N 36°05' W 001°59'1610.9
2014-Jul-15 10:06N 36°03' W 002°18'610.5
2014-Jul-15 09:34N 36°02' W 002°25'1311.2
2014-Jul-15 08:25N 36°02' W 002°41'12412.5
2014-Jul-14 22:28N 35°59' W 005°15'4313.9
2014-Jul-14 19:21N 35°54' W 006°08'1313.2
2014-Jul-14 18:22N 35°56' W 006°24'3512.3
2014-Jul-14 15:30N 36°05' W 007°05'1111.9
2014-Jul-14 14:33N 36°08' W 007°19'1111.4
2014-Jul-14 13:33N 36°11' W 007°32'1212.0
2014-Jul-14 12:33N 36°14' W 007°47'1412.4
2014-Jul-14 11:25N 36°18' W 008°04'2312.1
2014-Jul-14 09:33N 36°24' W 008°30'1110.8
2014-Jul-14 08:33N 36°27' W 008°43'8 7.8
2014-Jul-14 07:29N 36°28' W 008°54'1111.6
2014-Jul-14 06:33N 36°31' W 009°07'2211.0
2014-Jul-14 04:34N 36°44' W 009°29'1211.4
2014-Jul-14 03:29N 36°55' W 009°36'2412.2
2014-Jul-14 01:29N 37°18' W 009°43'1212.2
2014-Jul-14 00:31N 37°30' W 009°47'1312.1
2014-Jul-13 23:26N 37°43' W 009°50'1112.3
2014-Jul-13 22:33N 37°53' W 009°53'1312.7
2014-Jul-13 21:34N 38°05' W 009°57'1412.4
2014-Jul-13 20:26N 38°19' W 010°01'1112.1
2014-Jul-13 19:32N 38°29' W 010°04'1412.1
2014-Jul-13 18:21N 38°44' W 010°07'1312.4
2014-Jul-13 17:20N 38°56' W 010°06'1312.0
2014-Jul-13 16:13N 39°10' W 010°06'912.0
2014-Jul-13 15:27N 39°19' W 010°06'  
Track history (hours):
 
Tides and Currents Weather Stations Pressure Air Temp Water Temp Dewpoint Dewpoint Depression Visibility Wind Speed Wind Dir Waves Ship Positions

Energy IVy

Last reported at 2014-Jul-23 00:10 UTC. Time now 2014-Jul-25 01:38 UTC.
Position N 40°46' E 029°32'.

Length 180 m; draft 9.6 m.

Type: Cargo ship. MMSI: 636091925.

Date/timePositionNaut miles runAvg speedWind from/ knotsBaromVisibWave heightAir tempDewpointWater temp
2014-Jul-23 00:10N 40°46' E 029°32'  
2014-Jul-19 23:10N 36°55' E 023°48'1111.2
2014-Jul-19 22:09N 36°46' E 023°39'42711.6
2014-Jul-18 09:19N 36°36' E 014°46'912.2
2014-Jul-18 08:34N 36°37' E 014°34'1212.0
2014-Jul-18 07:34N 36°39' E 014°20'16711.8
2014-Jul-17 17:24N 37°25' E 010°59'33211.9
2014-Jul-16 13:34N 37°05' E 004°03'1211.3
2014-Jul-16 12:29N 37°05' E 003°48'1410.9
2014-Jul-16 11:12N 37°03' E 003°31'711.3
2014-Jul-16 10:33N 37°03' E 003°22'1211.8
2014-Jul-16 09:33N 37°02' E 003°07'1211.8
2014-Jul-16 08:33N 36°59' E 002°52'1212.0
2014-Jul-16 07:33N 36°56' E 002°38'1312.7
2014-Jul-16 06:33N 36°54' E 002°22'1212.5
2014-Jul-16 05:34N 36°51' E 002°07'1312.3
2014-Jul-16 04:31N 36°48' E 001°51'1112.0
2014-Jul-16 03:34N 36°45' E 001°37'5611.1
2014-Jul-15 22:29N 36°33' E 000°29'4511.4
2014-Jul-15 18:32N 36°23' W 000°25'4711.4
2014-Jul-15 14:26N 36°12' W 001°22'1110.5
2014-Jul-15 13:22N 36°10' W 001°35'910.7
2014-Jul-15 12:33N 36°08' W 001°46'1010.6
2014-Jul-15 11:34N 36°05' W 001°59'1610.9
2014-Jul-15 10:06N 36°03' W 002°18'610.5
2014-Jul-15 09:34N 36°02' W 002°25'1311.2
2014-Jul-15 08:25N 36°02' W 002°41'12412.5
2014-Jul-14 22:28N 35°59' W 005°15'4313.9
2014-Jul-14 19:21N 35°54' W 006°08'1313.2
2014-Jul-14 18:22N 35°56' W 006°24'3512.3
2014-Jul-14 15:30N 36°05' W 007°05'1111.9
2014-Jul-14 14:33N 36°08' W 007°19'1111.4
2014-Jul-14 13:33N 36°11' W 007°32'1212.0
2014-Jul-14 12:33N 36°14' W 007°47'1412.4
2014-Jul-14 11:25N 36°18' W 008°04'2312.1
2014-Jul-14 09:33N 36°24' W 008°30'1110.8
2014-Jul-14 08:33N 36°27' W 008°43'8 7.8
2014-Jul-14 07:29N 36°28' W 008°54'1111.6
2014-Jul-14 06:33N 36°31' W 009°07'2211.0
2014-Jul-14 04:34N 36°44' W 009°29'1211.4
2014-Jul-14 03:29N 36°55' W 009°36'2412.2
2014-Jul-14 01:29N 37°18' W 009°43'1212.2
2014-Jul-14 00:31N 37°30' W 009°47'1312.1
2014-Jul-13 23:26N 37°43' W 009°50'1112.3
2014-Jul-13 22:33N 37°53' W 009°53'1312.7
2014-Jul-13 21:34N 38°05' W 009°57'1412.4
2014-Jul-13 20:26N 38°19' W 010°01'1112.1
2014-Jul-13 19:32N 38°29' W 010°04'1412.1
2014-Jul-13 18:21N 38°44' W 010°07'1312.4
2014-Jul-13 17:20N 38°56' W 010°06'1312.0
2014-Jul-13 16:13N 39°10' W 010°06'912.0
2014-Jul-13 15:27N 39°19' W 010°06'  

Dump ship's entire track history